Time;durP1;ratioP1;P1;durP2;ratioP2;P2;SDS_P1;SDS_P2;PMS_P1;PMS_P2;Temp;Humidity;BMP_temperature;BMP_pressure;BME280_temperature;BME280_humidity;BME280_pressure;Samples;Min_cycle;Max_cycle;Signal;HPM_P1;HPM_P2
2021/11/23 07:09:12;;;;;;;19.15;11.22;;;;;;;18.79;31.59;146876.02;1817456;77;25810;-57
2021/11/23 07:11:47;;;;;;;17.37;9.83;;;;;;;19.20;30.99;146977.00;1818994;77;22151;-59
2021/11/23 07:14:47;;;;;;;15.48;8.65;;;;;;;19.69;30.11;147098.30;1817626;77;22196;-57
2021/11/23 07:17:22;;;;;;;14.45;8.45;;;;;;;19.87;29.56;147141.20;1820924;77;22559;-58
2021/11/23 07:20:18;;;;;;;17.90;9.70;;;;;;;20.12;28.67;147203.11;1814332;77;22144;-57
2021/11/23 07:22:54;;;;;;;15.20;8.88;;;;;;;19.95;28.50;147161.45;1819327;77;27994;-58
2021/11/23 07:25:49;;;;;;;15.48;8.70;;;;;;;19.86;28.45;147138.69;1837745;77;28400;-59
2021/11/23 07:28:25;;;;;;;11.95;7.12;;;;;;;19.77;28.20;147117.25;1843419;78;22161;-57
2021/11/23 07:31:20;;;;;;;11.33;6.60;;;;;;;18.87;28.81;146896.20;1834886;77;22176;-57
2021/11/23 07:34:01;;;;;;;10.43;7.05;;;;;;;18.56;29.22;146817.94;1834071;77;22180;-58
2021/11/23 07:36:38;;;;;;;11.28;7.10;;;;;;;18.30;29.24;146754.84;1834963;77;22136;-59
2021/11/23 07:39:38;;;;;;;12.35;6.47;;;;;;;16.84;30.76;146395.42;1834119;77;22611;-57
2021/11/23 07:42:14;;;;;;;9.70;5.50;;;;;;;15.46;32.33;146053.94;1834968;77;22132;-59
2021/11/23 07:45:09;;;;;;;10.18;5.83;;;;;;;14.53;33.73;145826.14;1817734;77;22624;-57
2021/11/23 07:47:50;;;;;;;10.53;5.95;;;;;;;13.89;34.87;145670.12;1821078;77;22178;-59
2021/11/23 07:50:45;;;;;;;10.60;5.47;;;;;;;13.79;34.88;145643.69;1823761;77;22178;-58
2021/11/23 07:53:45;;;;;;;12.68;5.87;;;;;;;13.24;35.62;145510.39;1834767;77;22191;-57
2021/11/23 07:56:21;;;;;;;12.85;7.15;;;;;;;13.25;35.86;145511.64;1837766;77;28418;-57
2021/11/23 07:58:57;;;;;;;11.55;7.10;;;;;;;13.21;36.25;145501.61;1834944;77;22211;-57
2021/11/23 08:01:52;;;;;;;14.00;5.95;;;;;;;13.57;35.93;145590.89;1829989;77;22176;-57
2021/11/23 08:04:48;;;;;;;13.22;6.17;;;;;;;13.84;35.59;145656.25;1834517;77;22179;-58
2021/11/23 08:07:30;;;;;;;11.85;6.53;;;;;;;13.70;35.59;145622.33;1827872;77;22191;-58
2021/11/23 08:10:26;;;;;;;11.45;5.75;;;;;;;14.11;35.08;145722.92;1853355;77;22722;-57
2021/11/23 08:13:02;;;;;;;13.48;7.30;;;;;;;14.01;34.91;145699.02;1819328;77;38458;-58
2021/11/23 08:15:38;;;;;;;9.45;5.78;;;;;;;13.92;35.37;145675.13;1835069;77;22128;-59
2021/11/23 08:18:13;;;;;;;12.85;6.83;;;;;;;13.49;35.81;145570.80;1853231;77;20103;-56
2021/11/23 08:20:48;;;;;;;11.55;6.03;;;;;;;12.94;36.61;145434.98;1808164;77;22595;-57
2021/11/23 08:23:48;;;;;;;11.80;6.70;;;;;;;12.26;37.44;145269.19;1853391;77;22187;-56
2021/11/23 08:26:31;;;;;;;11.33;6.65;;;;;;;11.55;38.25;145094.63;1853464;77;22221;-58
2021/11/23 08:29:07;;;;;;;13.08;7.50;;;;;;;10.80;39.70;144910.13;1823753;77;28021;-56
2021/11/23 08:31:42;;;;;;;12.65;6.80;;;;;;;10.27;40.83;144779.64;1835120;77;22177;-58
2021/11/23 08:34:19;;;;;;;10.98;6.47;;;;;;;9.75;41.67;144653.05;1785306;79;28520;-58
2021/11/23 08:37:13;;;;;;;11.57;6.67;;;;;;;9.11;43.00;144497.66;1805919;77;28116;-56
2021/11/23 08:40:10;;;;;;;9.28;5.50;;;;;;;8.44;44.37;144332.31;1853428;77;22224;-57
2021/11/23 08:43:10;;;;;;;10.25;6.05;;;;;;;7.87;45.67;144193.34;1834331;77;22188;-57
2021/11/23 08:46:04;;;;;;;11.35;6.47;;;;;;;7.37;46.98;144070.70;1808631;77;22215;-55
2021/11/23 08:48:40;;;;;;;13.25;6.47;;;;;;;6.91;48.16;143959.39;1818574;77;28035;-58
2021/11/23 08:51:21;;;;;;;12.55;5.75;;;;;;;6.53;49.19;143865.63;1845061;77;22167;-57
2021/11/23 08:53:59;;;;;;;9.35;5.72;;;;;;;5.91;50.56;143713.13;1819152;77;22167;-56
2021/11/23 08:56:37;;;;;;;12.53;5.80;;;;;;;5.54;51.73;143623.16;1820811;77;22567;-56
2021/11/23 08:59:33;;;;;;;12.47;6.80;;;;;;;5.39;52.73;143588.22;1837769;77;28017;-56
2021/11/23 09:02:27;;;;;;;9.68;5.40;;;;;;;5.42;53.23;143595.70;1816632;77;22168;-58
2021/11/23 09:05:03;;;;;;;13.18;7.35;;;;;;;5.27;53.65;143558.25;1792442;77;28159;-57
2021/11/23 09:07:39;;;;;;;11.73;7.25;;;;;;;5.07;54.54;143509.55;1819337;77;28006;-57
2021/11/23 09:10:25;;;;;;;15.93;7.45;;;;;;;4.94;55.16;143478.33;1833868;77;22181;-57
2021/11/23 09:13:21;;;;;;;11.97;7.37;;;;;;;4.87;55.66;143459.61;1808519;77;22208;-56
2021/11/23 09:16:15;;;;;;;13.10;7.75;;;;;;;4.77;56.19;143437.13;1834755;77;22136;-59
2021/11/23 09:19:09;;;;;;;13.53;7.33;;;;;;;4.66;56.69;143409.69;1834874;77;22152;-58
2021/11/23 09:22:04;;;;;;;11.33;7.80;;;;;;;4.61;57.23;143397.20;1831631;77;22202;-59
2021/11/23 09:24:40;;;;;;;16.60;9.93;;;;;;;4.50;57.79;143371.00;1803802;77;28154;-59
2021/11/23 09:27:15;;;;;;;14.05;8.88;;;;;;;4.51;58.22;143373.48;1814242;77;28384;-61
2021/11/23 09:29:56;;;;;;;15.72;8.90;;;;;;;4.49;58.55;143368.48;1817376;77;22213;-60
2021/11/23 09:32:32;;;;;;;18.45;10.43;;;;;;;4.50;58.82;143369.72;1818441;77;22144;-60
2021/11/23 09:35:13;;;;;;;23.73;12.75;;;;;;;4.53;59.06;143378.48;1815582;77;22163;-61
2021/11/23 09:38:09;;;;;;;29.65;16.85;;;;;;;4.52;59.50;143374.72;1802187;77;28205;-57
2021/11/23 09:41:07;;;;;;;25.60;15.25;;;;;;;4.59;59.56;143392.20;1820638;77;22127;-58
2021/11/23 09:43:43;;;;;;;26.87;14.20;;;;;;;4.47;59.82;143362.25;1820819;77;22147;-59
2021/11/23 09:46:19;;;;;;;16.75;9.45;;;;;;;4.40;60.15;143346.05;1821718;77;20465;-59
2021/11/23 09:48:55;;;;;;;13.03;7.62;;;;;;;4.27;60.32;143314.81;1801802;77;28077;-59
2021/11/23 09:51:50;;;;;;;10.28;6.45;;;;;;;4.33;60.53;143329.81;1824848;77;22219;-58
2021/11/23 09:54:26;;;;;;;16.12;7.47;;;;;;;4.33;60.57;143328.58;1821803;77;22168;-59
2021/11/23 09:57:02;;;;;;;14.70;8.20;;;;;;;4.25;60.67;143308.56;1819325;77;38759;-62
2021/11/23 09:59:39;;;;;;;14.30;8.05;;;;;;;4.38;60.88;143341.05;1834706;77;22585;-59
2021/11/23 10:02:27;;;;;;;15.43;8.70;;;;;;;4.47;60.92;143363.48;1834921;77;22583;-58
2021/11/23 10:05:23;;;;;;;17.12;7.78;;;;;;;4.59;60.88;143390.97;1870268;76;22611;-60
2021/11/23 10:08:09;;;;;;;12.78;7.28;;;;;;;4.40;61.12;143346.05;1819322;77;22195;-60
2021/11/23 10:11:04;;;;;;;14.50;8.23;;;;;;;4.37;61.59;143338.53;1818811;77;22168;-59
2021/11/23 10:13:48;;;;;;;21.50;9.35;;;;;;;4.62;61.24;143398.44;1820439;77;22597;-60
2021/11/23 10:16:46;;;;;;;12.78;7.45;;;;;;;4.90;61.03;143468.33;1813202;77;22329;-60
2021/11/23 10:19:27;;;;;;;15.88;7.25;;;;;;;5.19;60.51;143538.22;1853541;77;22127;-61
2021/11/23 10:22:03;;;;;;;16.30;6.80;;;;;;;5.40;59.82;143590.70;1834981;77;22169;-59
2021/11/23 10:24:44;;;;;;;12.00;6.80;;;;;;;5.44;59.20;143600.72;1853518;77;22262;-60
2021/11/23 10:27:42;;;;;;;11.90;7.05;;;;;;;5.35;58.94;143576.97;1853605;77;22131;-59
2021/11/23 10:30:18;;;;;;;9.60;5.53;;;;;;;5.25;58.96;143553.25;1834865;77;22266;-61
2021/11/23 10:32:53;;;;;;;12.18;6.22;;;;;;;5.16;58.83;143530.75;1835028;77;22132;-61
2021/11/23 10:35:59;;;;;;;11.85;6.12;;;;;;;5.05;59.05;143503.30;1853323;77;22188;-57
2021/11/23 10:38:34;;;;;;;10.48;6.12;;;;;;;4.96;59.45;143482.05;1834980;77;22175;-59
2021/11/23 10:41:30;;;;;;;11.45;6.40;;;;;;;4.83;59.51;143449.61;1834878;77;20381;-61
2021/11/23 10:44:18;;;;;;;9.85;5.60;;;;;;;4.75;59.74;143432.13;1831394;77;22168;-61
2021/11/23 10:47:19;;;;;;;11.50;5.60;;;;;;;4.65;59.99;143405.92;1834107;77;22184;-60
2021/11/23 10:50:21;;;;;;;9.80;5.30;;;;;;;4.65;60.09;143405.92;1853540;77;22127;-59
2021/11/23 10:53:16;;;;;;;6.67;4.05;;;;;;;4.66;60.03;143408.44;1853528;77;22558;-60
2021/11/23 10:56:19;;;;;;;7.67;4.92;;;;;;;4.52;60.10;143374.72;1833908;77;22184;-58
2021/11/23 10:59:20;;;;;;;9.53;5.17;;;;;;;4.39;60.60;143343.53;1853468;77;22170;-57
2021/11/23 11:02:14;;;;;;;8.15;4.60;;;;;;;4.30;60.95;143322.34;1834886;77;22137;-59
2021/11/23 11:05:12;;;;;;;16.52;4.95;;;;;;;4.30;61.21;143322.34;1834928;77;22160;-58
2021/11/23 11:07:48;;;;;;;9.90;4.35;;;;;;;4.43;61.30;143353.53;1834897;77;22140;-59
2021/11/23 11:10:25;;;;;;;9.10;4.37;;;;;;;4.52;60.88;143374.72;1834801;77;22137;-59
2021/11/23 11:13:26;;;;;;;8.38;4.60;;;;;;;4.55;60.87;143382.20;1834860;77;22615;-61
2021/11/23 11:16:21;;;;;;;8.58;4.75;;;;;;;4.50;60.76;143371.00;1810401;77;22231;-60
2021/11/23 11:19:14;;;;;;;8.20;4.90;;;;;;;4.46;60.92;143359.77;1853849;77;22240;-60
2021/11/23 11:21:54;;;;;;;8.43;5.12;;;;;;;4.45;61.04;143357.25;1834973;77;22168;-62
2021/11/23 11:24:44;;;;;;;8.70;5.05;;;;;;;4.50;61.12;143371.00;1834706;77;22147;-63
2021/11/23 11:27:45;;;;;;;9.43;5.10;;;;;;;4.59;60.99;143390.97;1822738;77;22602;-60
2021/11/23 11:30:51;;;;;;;9.33;5.00;;;;;;;4.67;60.92;143410.92;1834781;77;22159;-62
2021/11/23 11:33:42;;;;;;;9.23;5.25;;;;;;;4.74;60.74;143428.41;1821281;77;22168;-63
2021/11/23 11:36:28;;;;;;;9.43;6.28;;;;;;;4.72;60.77;143423.41;1819202;77;28048;-62
2021/11/23 11:39:04;;;;;;;9.23;5.65;;;;;;;4.81;60.61;143445.87;1828663;77;22651;-63
2021/11/23 11:41:42;;;;;;;8.70;5.50;;;;;;;4.76;60.56;143433.41;1820172;77;22168;-60
2021/11/23 11:44:40;;;;;;;9.35;5.33;;;;;;;4.54;61.01;143380.95;1819342;77;22218;-57
2021/11/23 11:47:35;;;;;;;7.45;4.87;;;;;;;4.45;61.39;143358.53;1821733;77;22284;-62
2021/11/23 11:50:29;;;;;;;7.85;4.28;;;;;;;4.41;61.40;143348.53;1853471;77;22558;-62
2021/11/23 11:53:23;;;;;;;10.75;4.45;;;;;;;4.36;61.72;143336.05;1834994;77;22144;-60
2021/11/23 11:56:40;;;;;;;8.15;4.53;;;;;;;4.40;61.65;143346.05;1853391;77;22156;-62
2021/11/23 11:59:27;;;;;;;9.70;5.58;;;;;;;4.39;61.72;143343.53;1843353;77;22140;-63
2021/11/23 12:02:07;;;;;;;8.83;4.87;;;;;;;4.41;61.70;143347.28;1835045;77;22609;-64
2021/11/23 12:05:00;;;;;;;8.15;4.35;;;;;;;4.39;61.80;143342.28;1834882;77;22132;-60
2021/11/23 12:07:54;;;;;;;11.38;6.08;;;;;;;4.29;62.18;143319.81;1834691;77;22156;-62
2021/11/23 12:10:48;;;;;;;11.70;4.85;;;;;;;4.24;62.28;143306.09;1853429;77;22135;-62
2021/11/23 12:14:02;;;;;;;10.28;5.22;;;;;;;3.99;62.78;143246.20;1834015;77;22196;-65
2021/11/23 12:17:10;;;;;;;8.63;4.42;;;;;;;3.86;63.33;143213.78;1853376;77;22231;-61
2021/11/23 12:20:11;;;;;;;8.88;4.72;;;;;;;4.03;63.45;143256.20;1853550;77;22542;-61
2021/11/23 12:22:52;;;;;;;9.60;4.20;;;;;;;4.49;63.03;143367.25;1835004;77;22125;-65
2021/11/23 12:26:13;;;;;;;7.85;4.53;;;;;;;4.73;62.32;143425.88;1834748;77;22138;-69
2021/11/23 12:29:03;;;;;;;8.58;5.67;;;;;;;4.75;61.74;143430.87;1848005;78;22191;-64
2021/11/23 12:31:49;;;;;;;10.18;4.83;;;;;;;4.75;61.64;143430.87;1834019;77;22192;-66
2021/11/23 12:34:54;;;;;;;10.98;4.70;;;;;;;4.65;61.69;143405.92;1834042;77;22167;-67
2021/11/23 12:37:50;;;;;;;8.90;4.95;;;;;;;4.33;62.13;143328.58;1853352;77;22163;-65
2021/11/23 12:40:46;;;;;;;8.13;4.70;;;;;;;3.98;62.96;143242.48;1834839;77;22619;-63
2021/11/23 12:43:41;;;;;;;8.93;4.95;;;;;;;3.88;63.62;143218.78;1837709;77;38539;-66
2021/11/23 12:46:24;;;;;;;8.05;4.78;;;;;;;3.90;63.87;143223.78;1834623;77;22205;-61
2021/11/23 12:49:19;;;;;;;7.95;4.40;;;;;;;3.87;64.31;143216.31;1834753;77;22168;-63
2021/11/23 12:52:21;;;;;;;10.28;4.72;;;;;;;3.84;64.46;143208.78;1833995;77;22188;-66
2021/11/23 12:54:56;;;;;;;10.53;5.10;;;;;;;3.88;64.63;143218.78;1853488;77;22156;-61
2021/11/23 12:57:31;;;;;;;11.60;6.28;;;;;;;3.97;64.76;143239.97;1819340;77;28437;-58
2021/11/23 13:00:09;;;;;;;9.68;6.00;;;;;;;4.23;64.52;143304.86;1853571;77;22606;-68
2021/11/23 13:02:55;;;;;;;9.30;5.60;;;;;;;4.44;63.98;143354.77;1834741;77;22179;-67
2021/11/23 13:05:49;;;;;;;10.08;5.80;;;;;;;4.48;63.71;143366.00;1834959;77;22137;-63
2021/11/23 13:08:30;;;;;;;10.13;5.50;;;;;;;4.45;63.64;143357.25;1830964;77;22194;-67
2021/11/23 13:11:14;;;;;;;10.48;5.12;;;;;;;4.39;63.74;143343.53;1826864;77;22207;-65
2021/11/23 13:14:08;;;;;;;8.48;5.50;;;;;;;4.32;63.71;143326.05;1853484;77;22163;-61
2021/11/23 13:16:50;;;;;;;10.35;5.35;;;;;;;4.25;63.88;143308.56;1834939;77;22128;-63
2021/11/23 13:19:54;;;;;;;11.90;5.75;;;;;;;4.25;64.02;143309.86;1834462;77;22210;-63
2021/11/23 13:22:42;;;;;;;12.30;6.40;;;;;;;4.22;63.98;143301.09;1827683;77;22127;-62
2021/11/23 13:25:19;;;;;;;11.93;5.83;;;;;;;4.09;64.26;143271.16;1864441;76;22708;-63
2021/11/23 13:27:55;;;;;;;13.55;5.80;;;;;;;3.85;64.58;143212.55;1835033;77;22137;-63
2021/11/23 13:30:51;;;;;;;9.80;6.50;;;;;;;3.69;65.01;143173.89;1842535;77;20115;-64
2021/11/23 13:33:43;;;;;;;12.53;6.85;;;;;;;3.58;65.42;143146.44;1834179;77;22205;-64
2021/11/23 13:36:42;;;;;;;10.72;6.78;;;;;;;3.47;65.93;143119.03;1843473;77;20350;-62
2021/11/23 13:39:41;;;;;;;13.15;6.80;;;;;;;3.49;66.30;143124.02;1843201;77;22631;-62
2021/11/23 13:42:24;;;;;;;10.82;6.22;;;;;;;3.55;66.33;143137.72;1824308;77;22215;-59
2021/11/23 13:45:13;;;;;;;11.50;6.20;;;;;;;3.57;66.37;143142.72;1824018;77;22245;-60
2021/11/23 13:47:50;;;;;;;12.47;7.25;;;;;;;3.52;66.59;143131.48;1844203;77;22163;-59
2021/11/23 13:51:03;;;;;;;11.28;6.05;;;;;;;3.59;66.65;143148.95;1828464;77;22187;-59
2021/11/23 13:54:13;;;;;;;10.68;6.12;;;;;;;3.57;66.62;143143.95;1813373;77;22208;-60
2021/11/23 13:56:53;;;;;;;10.53;6.97;;;;;;;3.48;66.68;143122.73;1820166;77;22151;-59
2021/11/23 13:59:29;;;;;;;12.55;7.35;;;;;;;3.45;66.92;143114.03;1820187;77;22151;-60
2021/11/23 14:02:06;;;;;;;12.98;7.60;;;;;;;3.48;67.02;143121.50;1826044;77;22191;-60
2021/11/23 14:04:44;;;;;;;22.93;10.30;;;;;;;3.53;67.04;143133.97;1829262;77;22176;-57
2021/11/23 14:07:53;;;;;;;15.95;7.45;;;;;;;3.58;66.98;143145.19;1853041;77;22159;-56
2021/11/23 14:10:51;;;;;;;17.52;7.85;;;;;;;3.61;66.92;143153.95;1853397;77;22164;-56
2021/11/23 14:13:30;;;;;;;11.48;6.92;;;;;;;3.61;66.91;143152.67;1834428;77;22156;-57
2021/11/23 14:16:28;;;;;;;16.82;8.50;;;;;;;3.61;66.89;143152.67;1834906;77;22623;-58
2021/11/23 14:19:09;;;;;;;18.85;9.38;;;;;;;3.57;66.94;143143.95;1834889;77;22579;-58
2021/11/23 14:21:58;;;;;;;12.95;8.60;;;;;;;3.56;66.96;143141.48;1834876;77;22128;-57
2021/11/23 14:24:52;;;;;;;20.00;8.90;;;;;;;3.54;67.08;143136.48;1853479;77;22139;-58
2021/11/23 14:27:53;;;;;;;14.65;8.58;;;;;;;3.51;67.17;143127.73;1834295;77;22638;-57
2021/11/23 14:30:29;;;;;;;15.55;9.28;;;;;;;3.49;67.21;143124.02;1853491;77;22187;-57
2021/11/23 14:33:24;;;;;;;17.05;8.70;;;;;;;3.48;67.31;143121.50;1833473;77;23299;-57
2021/11/23 14:36:07;;;;;;;23.35;12.03;;;;;;;3.52;67.41;143131.48;1853192;77;22602;-57
2021/11/23 14:38:42;;;;;;;21.62;12.33;;;;;;;3.56;67.46;143141.48;1853471;77;22131;-57
2021/11/23 14:41:18;;;;;;;23.57;11.40;;;;;;;3.57;67.45;143142.72;1834833;77;22128;-58
2021/11/23 14:43:53;;;;;;;20.35;11.53;;;;;;;3.57;67.62;143143.95;1848078;78;20210;-57
2021/11/23 14:46:28;;;;;;;26.15;14.20;;;;;;;3.59;67.62;143148.95;1834910;77;22132;-58
2021/11/23 14:49:23;;;;;;;21.97;13.08;;;;;;;3.60;67.54;143151.44;1834909;77;22561;-57
2021/11/23 14:52:17;;;;;;;20.10;12.55;;;;;;;3.58;67.47;143146.44;1831142;77;22174;-57
2021/11/23 14:54:52;;;;;;;22.75;14.85;;;;;;;3.56;67.48;143140.20;1837736;77;28013;-57
2021/11/23 14:57:28;;;;;;;27.50;13.55;;;;;;;3.60;67.45;143151.44;1834941;77;22156;-57
2021/11/23 15:00:22;;;;;;;18.27;11.57;;;;;;;3.58;67.60;143145.19;1834955;77;22116;-58
2021/11/23 15:02:59;;;;;;;21.68;12.00;;;;;;;3.56;67.75;143141.48;1834687;77;22543;-58
2021/11/23 15:05:35;;;;;;;21.55;13.40;;;;;;;3.54;68.00;143136.48;1819088;77;38780;-57
2021/11/23 15:08:17;;;;;;;19.95;11.83;;;;;;;3.58;68.41;143146.44;1853129;77;22255;-57
2021/11/23 15:11:12;;;;;;;16.25;9.35;;;;;;;3.60;68.91;143150.19;1834722;77;22627;-56
2021/11/23 15:13:47;;;;;;;16.00;9.05;;;;;;;3.58;69.70;143146.44;1825374;77;22139;-57
2021/11/23 15:16:22;;;;;;;12.30;7.22;;;;;;;3.53;70.38;143133.97;1827217;77;22542;-56
2021/11/23 15:18:57;;;;;;;16.05;9.58;;;;;;;3.45;70.68;143114.03;1814684;77;28022;-57
2021/11/23 15:21:33;;;;;;;13.72;8.28;;;;;;;3.46;71.08;143116.50;1853588;77;22132;-58
2021/11/23 15:24:14;;;;;;;13.00;7.70;;;;;;;3.39;71.29;143100.33;1815284;77;22220;-57
2021/11/23 15:27:10;;;;;;;14.33;7.75;;;;;;;3.30;71.93;143076.63;1829928;77;22586;-56
2021/11/23 15:30:10;;;;;;;14.63;7.03;;;;;;;3.20;72.93;143052.94;1817026;77;22286;-55
2021/11/23 15:33:06;;;;;;;15.20;7.35;;;;;;;3.00;73.58;143004.31;1820258;77;22151;-57
2021/11/23 15:36:00;;;;;;;9.95;6.45;;;;;;;2.98;75.11;142999.38;1820808;77;22172;-57
2021/11/23 15:38:39;;;;;;;7.78;5.28;;;;;;;3.00;75.60;143005.59;1834693;77;22593;-57
2021/11/23 15:41:33;;;;;;;13.50;7.25;;;;;;;2.98;76.44;142999.38;1797541;77;28533;-57
2021/11/23 15:44:28;;;;;;;22.05;12.05;;;;;;;3.03;77.32;143011.83;1813965;77;22168;-56
2021/11/23 15:47:24;;;;;;;19.23;9.60;;;;;;;2.99;77.90;143001.84;1843500;77;22215;-57
2021/11/23 15:50:10;;;;;;;16.70;9.28;;;;;;;2.93;78.79;142986.91;1848116;78;22631;-57
2021/11/23 15:52:51;;;;;;;16.32;8.90;;;;;;;2.89;79.56;142976.92;1853304;77;22184;-56
2021/11/23 15:55:45;;;;;;;14.78;6.65;;;;;;;2.80;80.06;142955.77;1834845;77;22132;-57
2021/11/23 15:58:39;;;;;;;12.70;6.25;;;;;;;2.66;80.46;142922.09;1834922;77;22579;-56
2021/11/23 16:01:24;;;;;;;12.33;6.80;;;;;;;2.45;80.93;142871.03;1853692;77;22268;-58
2021/11/23 16:03:57;;;;;;;15.10;8.60;;;;;;;2.27;81.78;142827.44;1804401;77;28121;-59
2021/11/23 16:06:37;;;;;;;15.23;8.93;;;;;;;2.30;82.69;142833.66;1819302;77;28441;-56
2021/11/23 16:09:16;;;;;;;11.70;7.87;;;;;;;2.38;83.12;142854.81;1834073;77;22182;-56
2021/11/23 16:12:16;;;;;;;18.48;10.98;;;;;;;2.25;83.49;142822.44;1853116;77;22272;-58
2021/11/23 16:15:10;;;;;;;15.18;9.40;;;;;;;2.09;84.12;142782.61;1852416;77;22139;-58
2021/11/23 16:18:04;;;;;;;13.35;8.35;;;;;;;1.89;85.06;142735.28;1834865;77;22140;-57
2021/11/23 16:20:46;;;;;;;15.15;8.43;;;;;;;1.64;86.33;142673.03;1834155;77;22586;-58
2021/11/23 16:23:21;;;;;;;11.65;7.33;;;;;;;1.44;87.49;142625.72;1819164;77;28047;-58
2021/11/23 16:25:57;;;;;;;12.95;7.97;;;;;;;1.37;88.60;142608.28;1834916;77;22211;-57
2021/11/23 16:28:38;;;;;;;11.45;6.65;;;;;;;1.27;89.50;142584.69;1834166;77;22128;-59
2021/11/23 16:31:13;;;;;;;12.43;7.47;;;;;;;1.24;90.16;142575.94;1853515;77;22150;-56
2021/11/23 16:33:55;;;;;;;39.63;21.95;;;;;;;1.19;90.88;142563.50;1853388;77;22153;-56
2021/11/23 16:36:31;;;;;;;61.83;30.77;;;;;;;1.13;91.98;142548.59;1835022;77;22589;-57
2021/11/23 16:39:08;;;;;;;40.00;24.40;;;;;;;1.06;92.61;142533.63;1819417;77;27969;-56
2021/11/23 16:41:43;;;;;;;43.58;27.35;;;;;;;1.12;92.98;142546.08;1853520;77;22151;-56
2021/11/23 16:44:37;;;;;;;46.18;26.57;;;;;;;1.08;93.44;142538.62;1834896;77;22606;-58
2021/11/23 16:47:31;;;;;;;42.23;23.42;;;;;;;1.00;94.01;142517.48;1835042;77;22148;-57
2021/11/23 16:50:08;;;;;;;46.25;28.38;;;;;;;0.94;94.48;142503.81;1835023;77;22128;-57
2021/11/23 16:52:44;;;;;;;54.85;29.90;;;;;;;0.88;94.68;142487.63;1834955;77;22155;-57
2021/11/23 16:55:38;;;;;;;45.05;27.87;;;;;;;0.85;95.08;142481.41;1853362;77;22593;-56
2021/11/23 16:58:16;;;;;;;60.78;32.50;;;;;;;0.82;95.33;142473.95;1853463;77;22150;-57
2021/11/23 17:01:11;;;;;;;58.23;28.83;;;;;;;0.84;95.77;142478.89;1831642;77;22205;-57
2021/11/23 17:03:47;;;;;;;60.17;32.20;;;;;;;0.84;95.70;142478.89;1834922;77;22136;-57
2021/11/23 17:06:24;;;;;;;57.40;30.70;;;;;;;0.86;96.16;142485.11;1834875;77;22165;-57
2021/11/23 17:09:05;;;;;;;50.12;29.02;;;;;;;0.82;96.49;142473.95;1834078;77;22156;-57
2021/11/23 17:11:47;;;;;;;45.43;25.50;;;;;;;0.70;96.58;142444.09;1813306;77;22585;-56
2021/11/23 17:14:33;;;;;;;46.02;25.02;;;;;;;0.61;96.88;142424.20;1834112;77;22163;-57
2021/11/23 17:17:14;;;;;;;45.55;30.62;;;;;;;0.60;96.98;142421.69;1818505;77;28095;-58
2021/11/23 17:20:17;;;;;;;52.80;27.75;;;;;;;0.65;97.08;142432.89;1834980;77;22161;-58
2021/11/23 17:23:13;;;;;;;39.90;25.40;;;;;;;0.56;97.50;142411.77;1834143;77;22213;-57
2021/11/23 17:26:08;;;;;;;38.65;23.57;;;;;;;0.51;97.70;142399.33;1848208;77;22159;-57
2021/11/23 17:29:02;;;;;;;45.65;26.25;;;;;;;0.48;97.82;142391.83;1834909;77;22132;-57
2021/11/23 17:31:44;;;;;;;42.65;25.30;;;;;;;0.46;98.23;142386.89;1853478;77;22163;-57
2021/11/23 17:34:21;;;;;;;44.35;26.68;;;;;;;0.40;98.40;142373.19;1834314;77;22121;-58
2021/11/23 17:37:17;;;;;;;42.90;26.33;;;;;;;0.36;98.81;142363.27;1816614;77;22618;-57
2021/11/23 17:39:52;;;;;;;53.15;28.52;;;;;;;0.37;99.03;142364.50;1835054;77;22128;-56
2021/11/23 17:42:47;;;;;;;54.95;28.70;;;;;;;0.44;99.19;142381.91;1827112;77;22672;-59
2021/11/23 17:45:33;;;;;;;39.05;27.37;;;;;;;0.37;99.20;142364.50;1853588;77;22151;-58
2021/11/23 17:48:10;;;;;;;41.40;26.65;;;;;;;0.36;99.36;142362.03;1834920;77;22132;-56
2021/11/23 17:50:46;;;;;;;43.58;26.48;;;;;;;0.43;99.63;142379.41;1834972;77;22136;-58
2021/11/23 17:53:48;;;;;;;41.58;25.10;;;;;;;0.40;99.52;142371.95;1800051;79;22224;-57
2021/11/23 17:56:24;;;;;;;43.98;26.93;;;;;;;0.40;99.55;142371.95;1834982;77;22140;-58
2021/11/23 17:59:06;;;;;;;37.53;23.65;;;;;;;0.37;99.56;142364.50;1853741;77;22206;-57
2021/11/23 18:02:08;;;;;;;42.20;27.20;;;;;;;0.31;99.52;142350.83;1853444;77;22187;-57
2021/11/23 18:04:45;;;;;;;42.98;28.83;;;;;;;0.26;99.48;142337.16;1843309;78;22175;-57
2021/11/23 18:07:21;;;;;;;42.38;29.72;;;;;;;0.20;99.72;142324.73;1837711;77;28021;-57
2021/11/23 18:09:59;;;;;;;48.83;29.75;;;;;;;0.31;99.81;142349.59;1820852;77;22633;-56
2021/11/23 18:12:57;;;;;;;44.65;30.62;;;;;;;0.39;99.86;142370.72;1819305;77;28039;-57
2021/11/23 18:15:57;;;;;;;41.35;26.70;;;;;;;0.49;99.74;142394.34;1853106;77;22167;-57
2021/11/23 18:18:39;;;;;;;43.13;27.27;;;;;;;0.43;99.54;142380.67;1834079;77;22164;-57
2021/11/23 18:21:34;;;;;;;45.25;27.55;;;;;;;0.29;99.63;142344.61;1853512;77;22135;-56
2021/11/23 18:24:28;;;;;;;38.02;26.23;;;;;;;0.29;100.00;142345.84;1853495;77;22124;-57
2021/11/23 18:27:06;;;;;;;34.40;24.12;;;;;;;0.33;100.00;142354.53;1834976;77;22574;-57
2021/11/23 18:30:03;;;;;;;43.60;25.20;;;;;;;0.32;100.00;142352.06;1853545;77;22205;-56
2021/11/23 18:32:59;;;;;;;37.67;25.05;;;;;;;0.31;99.92;142349.59;1819318;77;28035;-57
2021/11/23 18:35:35;;;;;;;34.67;23.77;;;;;;;0.31;99.72;142349.59;1853415;77;22135;-56
2021/11/23 18:38:12;;;;;;;42.43;26.35;;;;;;;0.28;99.75;142342.09;1826348;77;22167;-56
2021/11/23 18:41:15;;;;;;;40.60;25.40;;;;;;;0.30;100.00;142348.31;1853720;77;22678;-57
2021/11/23 18:44:11;;;;;;;36.73;23.85;;;;;;;0.34;100.00;142357.05;1834846;77;22167;-57
2021/11/23 18:46:46;;;;;;;36.40;24.65;;;;;;;0.35;100.00;142359.52;1853529;77;22159;-56
2021/11/23 18:49:46;;;;;;;35.70;21.95;;;;;;;0.32;99.89;142353.30;1833104;77;22157;-56
2021/11/23 18:52:46;;;;;;;35.10;24.27;;;;;;;0.31;100.00;142350.83;1837731;77;28050;-64
2021/11/23 18:55:39;;;;;;;33.48;23.83;;;;;;;0.36;99.94;142362.03;1834894;77;22610;-61
2021/11/23 18:58:16;;;;;;;36.10;22.98;;;;;;;0.38;100.00;142366.97;1853474;77;22598;-57
2021/11/23 19:00:51;;;;;;;31.25;21.65;;;;;;;0.39;99.96;142370.72;1834977;77;22168;-58
2021/11/23 19:03:29;;;;;;;36.13;25.05;;;;;;;0.35;99.90;142359.52;1835052;77;22168;-56
2021/11/23 19:06:05;;;;;;;34.35;24.37;;;;;;;0.36;100.00;142362.03;1834945;77;22156;-53
2021/11/23 19:08:59;;;;;;;49.03;25.35;;;;;;;0.39;100.00;142370.72;1853286;77;22155;-56
2021/11/23 19:11:34;;;;;;;41.73;25.35;;;;;;;0.43;100.00;142379.41;1834769;77;22579;-54
2021/11/23 19:14:09;;;;;;;43.40;25.35;;;;;;;0.52;100.00;142400.56;1834891;77;22164;-56
2021/11/23 19:16:46;;;;;;;47.93;27.35;;;;;;;0.59;99.88;142419.22;1853415;77;22594;-55
2021/11/23 19:19:23;;;;;;;46.53;25.08;;;;;;;0.63;99.34;142429.14;1834733;77;22257;-55
2021/11/23 19:21:59;;;;;;;50.08;26.27;;;;;;;0.64;98.97;142431.66;1834895;77;22220;-55
2021/11/23 19:24:53;;;;;;;45.90;25.65;;;;;;;0.60;98.75;142421.69;1834899;77;22168;-55
2021/11/23 19:30:27;;;;;;;33.80;22.52;;;;;;;0.58;98.32;142416.70;1832832;77;22243;-55
2021/11/23 19:33:18;;;;;;;32.58;21.15;;;;;;;0.50;98.14;142396.81;1834197;77;22196;-55
2021/11/23 19:35:55;;;;;;;39.08;23.50;;;;;;;0.41;98.40;142375.69;1834728;77;22156;-54
2021/11/23 19:38:30;;;;;;;39.13;26.42;;;;;;;0.36;98.53;142362.03;1819312;77;28503;-56
2021/11/23 19:41:07;;;;;;;35.25;21.68;;;;;;;0.47;98.74;142389.36;1853462;77;22186;-55
2021/11/23 19:44:04;;;;;;;38.67;21.42;;;;;;;0.54;98.40;142405.55;1834676;77;22655;-56
2021/11/23 19:46:58;;;;;;;40.83;24.10;;;;;;;0.55;98.27;142409.25;1853443;77;22594;-55
2021/11/23 19:49:33;;;;;;;36.05;23.67;;;;;;;0.52;98.30;142401.80;1834902;77;22137;-54
2021/11/23 19:52:10;;;;;;;35.88;21.23;;;;;;;0.56;98.33;142410.48;1853514;77;22578;-55
2021/11/23 19:54:44;;;;;;;34.83;23.02;;;;;;;0.54;97.74;142405.55;1837684;77;28053;-55
2021/11/23 19:57:20;;;;;;;35.83;24.27;;;;;;;0.55;97.83;142408.02;1819355;77;28050;-54
2021/11/23 19:59:56;;;;;;;35.45;24.70;;;;;;;0.60;97.75;142420.45;1819240;77;28001;-55
2021/11/23 20:02:52;;;;;;;32.48;23.15;;;;;;;0.67;97.50;142437.87;1819416;77;28083;-54